sensor_id;sensor_type;location;lat;lon;timestamp;P1;durP1;ratioP1;P2;durP2;ratioP2
68349;SDS011;55268;-34.538;-58.598;2022-07-22T00:02:09;36.92;;;12.55;;
68349;SDS011;55268;-34.538;-58.598;2022-07-22T00:04:36;36.25;;;13.43;;
68349;SDS011;55268;-34.538;-58.598;2022-07-22T00:07:03;21.30;;;8.98;;
68349;SDS011;55268;-34.538;-58.598;2022-07-22T00:09:30;24.13;;;8.48;;
68349;SDS011;55268;-34.538;-58.598;2022-07-22T00:11:57;25.05;;;6.70;;
68349;SDS011;55268;-34.538;-58.598;2022-07-22T00:14:25;21.40;;;6.80;;
68349;SDS011;55268;-34.538;-58.598;2022-07-22T00:16:52;18.25;;;5.20;;
68349;SDS011;55268;-34.538;-58.598;2022-07-22T00:19:19;18.77;;;7.38;;
68349;SDS011;55268;-34.538;-58.598;2022-07-22T00:21:45;22.92;;;5.65;;
68349;SDS011;55268;-34.538;-58.598;2022-07-22T00:24:12;19.17;;;5.60;;
68349;SDS011;55268;-34.538;-58.598;2022-07-22T00:26:39;22.95;;;4.93;;
68349;SDS011;55268;-34.538;-58.598;2022-07-22T00:29:06;18.15;;;5.32;;
68349;SDS011;55268;-34.538;-58.598;2022-07-22T00:31:33;17.15;;;4.68;;
68349;SDS011;55268;-34.538;-58.598;2022-07-22T00:34:08;17.63;;;4.63;;
68349;SDS011;55268;-34.538;-58.598;2022-07-22T00:36:35;14.35;;;4.30;;
68349;SDS011;55268;-34.538;-58.598;2022-07-22T00:39:09;18.17;;;5.05;;
68349;SDS011;55268;-34.538;-58.598;2022-07-22T00:41:36;15.20;;;5.30;;
68349;SDS011;55268;-34.538;-58.598;2022-07-22T00:44:05;21.45;;;5.18;;
68349;SDS011;55268;-34.538;-58.598;2022-07-22T00:46:34;21.02;;;4.93;;
68349;SDS011;55268;-34.538;-58.598;2022-07-22T00:49:03;23.88;;;7.35;;
68349;SDS011;55268;-34.538;-58.598;2022-07-22T00:51:31;20.92;;;6.03;;
68349;SDS011;55268;-34.538;-58.598;2022-07-22T00:53:59;20.15;;;5.20;;
68349;SDS011;55268;-34.538;-58.598;2022-07-22T00:56:26;18.42;;;5.15;;
68349;SDS011;55268;-34.538;-58.598;2022-07-22T00:58:55;18.38;;;6.55;;
68349;SDS011;55268;-34.538;-58.598;2022-07-22T01:01:23;21.40;;;7.25;;
68349;SDS011;55268;-34.538;-58.598;2022-07-22T01:03:50;25.73;;;4.97;;
68349;SDS011;55268;-34.538;-58.598;2022-07-22T01:06:17;22.30;;;5.88;;
68349;SDS011;55268;-34.538;-58.598;2022-07-22T01:08:44;16.20;;;5.60;;
68349;SDS011;55268;-34.538;-58.598;2022-07-22T01:11:13;26.35;;;7.97;;
68349;SDS011;55268;-34.538;-58.598;2022-07-22T01:13:43;27.15;;;9.93;;
68349;SDS011;55268;-34.538;-58.598;2022-07-22T01:16:11;20.33;;;5.97;;
68349;SDS011;55268;-34.538;-58.598;2022-07-22T01:18:39;18.92;;;5.80;;
68349;SDS011;55268;-34.538;-58.598;2022-07-22T01:21:07;18.17;;;4.95;;
68349;SDS011;55268;-34.538;-58.598;2022-07-22T01:23:35;18.50;;;6.55;;
68349;SDS011;55268;-34.538;-58.598;2022-07-22T01:26:03;21.80;;;6.32;;
68349;SDS011;55268;-34.538;-58.598;2022-07-22T01:28:31;19.92;;;7.25;;
68349;SDS011;55268;-34.538;-58.598;2022-07-22T01:30:58;24.27;;;7.55;;
68349;SDS011;55268;-34.538;-58.598;2022-07-22T01:33:25;21.95;;;6.40;;
68349;SDS011;55268;-34.538;-58.598;2022-07-22T01:35:52;19.15;;;5.72;;
68349;SDS011;55268;-34.538;-58.598;2022-07-22T01:38:19;19.65;;;5.88;;
68349;SDS011;55268;-34.538;-58.598;2022-07-22T01:40:46;22.58;;;6.07;;
68349;SDS011;55268;-34.538;-58.598;2022-07-22T01:43:14;21.02;;;6.47;;
68349;SDS011;55268;-34.538;-58.598;2022-07-22T01:45:44;24.02;;;7.03;;
68349;SDS011;55268;-34.538;-58.598;2022-07-22T01:48:11;22.73;;;6.80;;
68349;SDS011;55268;-34.538;-58.598;2022-07-22T01:50:39;30.27;;;10.75;;
68349;SDS011;55268;-34.538;-58.598;2022-07-22T01:53:08;25.88;;;13.10;;
68349;SDS011;55268;-34.538;-58.598;2022-07-22T01:58:03;29.42;;;12.60;;
68349;SDS011;55268;-34.538;-58.598;2022-07-22T02:00:31;28.90;;;13.88;;
68349;SDS011;55268;-34.538;-58.598;2022-07-22T02:02:59;27.17;;;11.65;;
68349;SDS011;55268;-34.538;-58.598;2022-07-22T02:05:27;22.75;;;7.93;;
68349;SDS011;55268;-34.538;-58.598;2022-07-22T02:07:59;18.63;;;6.15;;
68349;SDS011;55268;-34.538;-58.598;2022-07-22T02:10:28;22.88;;;6.80;;
68349;SDS011;55268;-34.538;-58.598;2022-07-22T02:12:56;23.55;;;6.82;;
68349;SDS011;55268;-34.538;-58.598;2022-07-22T02:15:25;24.08;;;7.13;;
68349;SDS011;55268;-34.538;-58.598;2022-07-22T02:17:53;23.23;;;6.65;;
68349;SDS011;55268;-34.538;-58.598;2022-07-22T02:20:21;25.15;;;6.53;;
68349;SDS011;55268;-34.538;-58.598;2022-07-22T02:22:48;19.85;;;6.13;;
68349;SDS011;55268;-34.538;-58.598;2022-07-22T02:25:15;18.42;;;6.57;;
68349;SDS011;55268;-34.538;-58.598;2022-07-22T02:27:42;22.05;;;6.10;;
68349;SDS011;55268;-34.538;-58.598;2022-07-22T02:30:09;18.15;;;5.72;;
68349;SDS011;55268;-34.538;-58.598;2022-07-22T02:32:36;24.70;;;6.40;;
68349;SDS011;55268;-34.538;-58.598;2022-07-22T02:35:03;23.25;;;7.43;;
68349;SDS011;55268;-34.538;-58.598;2022-07-22T02:37:31;23.05;;;7.25;;
68349;SDS011;55268;-34.538;-58.598;2022-07-22T02:39:58;27.85;;;7.22;;
68349;SDS011;55268;-34.538;-58.598;2022-07-22T02:42:25;18.20;;;6.25;;
68349;SDS011;55268;-34.538;-58.598;2022-07-22T02:44:52;18.10;;;7.20;;
68349;SDS011;55268;-34.538;-58.598;2022-07-22T02:47:19;25.77;;;7.82;;
68349;SDS011;55268;-34.538;-58.598;2022-07-22T02:49:46;19.73;;;6.97;;
68349;SDS011;55268;-34.538;-58.598;2022-07-22T02:52:13;19.67;;;6.82;;
68349;SDS011;55268;-34.538;-58.598;2022-07-22T02:54:40;17.80;;;6.95;;
68349;SDS011;55268;-34.538;-58.598;2022-07-22T02:57:07;21.45;;;6.90;;
68349;SDS011;55268;-34.538;-58.598;2022-07-22T02:59:34;21.88;;;7.13;;
68349;SDS011;55268;-34.538;-58.598;2022-07-22T03:02:00;20.13;;;7.68;;
68349;SDS011;55268;-34.538;-58.598;2022-07-22T03:04:27;26.65;;;6.78;;
68349;SDS011;55268;-34.538;-58.598;2022-07-22T03:06:54;25.02;;;8.40;;
68349;SDS011;55268;-34.538;-58.598;2022-07-22T03:09:21;27.00;;;8.05;;
68349;SDS011;55268;-34.538;-58.598;2022-07-22T03:11:48;20.83;;;7.57;;
68349;SDS011;55268;-34.538;-58.598;2022-07-22T03:14:15;27.45;;;7.47;;
68349;SDS011;55268;-34.538;-58.598;2022-07-22T03:16:44;20.08;;;8.18;;
68349;SDS011;55268;-34.538;-58.598;2022-07-22T03:19:11;23.90;;;6.70;;
68349;SDS011;55268;-34.538;-58.598;2022-07-22T03:21:38;28.55;;;11.50;;
68349;SDS011;55268;-34.538;-58.598;2022-07-22T03:24:05;67.13;;;30.98;;
68349;SDS011;55268;-34.538;-58.598;2022-07-22T03:26:32;51.58;;;29.80;;
68349;SDS011;55268;-34.538;-58.598;2022-07-22T03:28:59;55.60;;;30.75;;
68349;SDS011;55268;-34.538;-58.598;2022-07-22T03:31:25;49.70;;;26.50;;
68349;SDS011;55268;-34.538;-58.598;2022-07-22T03:33:53;44.22;;;18.95;;
68349;SDS011;55268;-34.538;-58.598;2022-07-22T03:36:19;54.20;;;25.85;;
68349;SDS011;55268;-34.538;-58.598;2022-07-22T03:38:46;48.20;;;22.27;;
68349;SDS011;55268;-34.538;-58.598;2022-07-22T03:41:13;39.55;;;20.60;;
68349;SDS011;55268;-34.538;-58.598;2022-07-22T03:43:40;44.50;;;20.73;;
68349;SDS011;55268;-34.538;-58.598;2022-07-22T03:46:07;35.90;;;17.63;;
68349;SDS011;55268;-34.538;-58.598;2022-07-22T03:48:34;30.10;;;14.15;;
68349;SDS011;55268;-34.538;-58.598;2022-07-22T03:51:01;28.25;;;11.07;;
68349;SDS011;55268;-34.538;-58.598;2022-07-22T03:53:28;23.85;;;7.85;;
68349;SDS011;55268;-34.538;-58.598;2022-07-22T03:55:55;23.88;;;8.00;;
68349;SDS011;55268;-34.538;-58.598;2022-07-22T03:58:21;25.65;;;8.00;;
68349;SDS011;55268;-34.538;-58.598;2022-07-22T04:00:48;21.27;;;6.45;;
68349;SDS011;55268;-34.538;-58.598;2022-07-22T04:03:15;23.27;;;7.30;;
68349;SDS011;55268;-34.538;-58.598;2022-07-22T04:05:42;20.55;;;6.97;;
68349;SDS011;55268;-34.538;-58.598;2022-07-22T04:08:09;26.35;;;8.43;;
68349;SDS011;55268;-34.538;-58.598;2022-07-22T04:10:36;19.88;;;7.22;;
68349;SDS011;55268;-34.538;-58.598;2022-07-22T04:13:03;22.23;;;7.68;;
68349;SDS011;55268;-34.538;-58.598;2022-07-22T04:15:30;21.33;;;7.90;;
68349;SDS011;55268;-34.538;-58.598;2022-07-22T04:17:57;21.35;;;7.35;;
68349;SDS011;55268;-34.538;-58.598;2022-07-22T04:20:24;18.45;;;7.25;;
68349;SDS011;55268;-34.538;-58.598;2022-07-22T04:22:51;29.60;;;10.35;;
68349;SDS011;55268;-34.538;-58.598;2022-07-22T04:25:17;33.60;;;13.00;;
68349;SDS011;55268;-34.538;-58.598;2022-07-22T04:27:44;27.88;;;12.77;;
68349;SDS011;55268;-34.538;-58.598;2022-07-22T04:30:11;43.72;;;18.15;;
68349;SDS011;55268;-34.538;-58.598;2022-07-22T04:32:38;50.28;;;24.10;;
68349;SDS011;55268;-34.538;-58.598;2022-07-22T04:35:05;48.60;;;27.13;;
68349;SDS011;55268;-34.538;-58.598;2022-07-22T04:37:32;43.05;;;17.77;;
68349;SDS011;55268;-34.538;-58.598;2022-07-22T04:39:59;48.03;;;22.23;;
68349;SDS011;55268;-34.538;-58.598;2022-07-22T04:42:26;30.58;;;12.77;;
68349;SDS011;55268;-34.538;-58.598;2022-07-22T04:44:53;36.60;;;15.27;;
68349;SDS011;55268;-34.538;-58.598;2022-07-22T04:47:20;35.25;;;15.68;;
68349;SDS011;55268;-34.538;-58.598;2022-07-22T04:49:47;46.22;;;22.92;;
68349;SDS011;55268;-34.538;-58.598;2022-07-22T04:52:13;46.15;;;19.40;;
68349;SDS011;55268;-34.538;-58.598;2022-07-22T04:54:40;38.42;;;14.13;;
68349;SDS011;55268;-34.538;-58.598;2022-07-22T04:57:07;24.27;;;8.70;;
68349;SDS011;55268;-34.538;-58.598;2022-07-22T04:59:34;20.17;;;8.35;;
68349;SDS011;55268;-34.538;-58.598;2022-07-22T05:02:01;16.15;;;8.32;;
68349;SDS011;55268;-34.538;-58.598;2022-07-22T05:04:28;20.90;;;7.22;;
68349;SDS011;55268;-34.538;-58.598;2022-07-22T05:06:55;21.42;;;8.63;;
68349;SDS011;55268;-34.538;-58.598;2022-07-22T05:09:22;23.90;;;8.65;;
68349;SDS011;55268;-34.538;-58.598;2022-07-22T05:11:49;27.85;;;10.45;;
68349;SDS011;55268;-34.538;-58.598;2022-07-22T05:14:16;29.13;;;12.18;;
68349;SDS011;55268;-34.538;-58.598;2022-07-22T05:16:43;39.45;;;15.85;;
68349;SDS011;55268;-34.538;-58.598;2022-07-22T05:19:10;40.60;;;18.00;;
68349;SDS011;55268;-34.538;-58.598;2022-07-22T05:21:37;45.45;;;19.85;;
68349;SDS011;55268;-34.538;-58.598;2022-07-22T05:24:03;42.72;;;17.48;;
68349;SDS011;55268;-34.538;-58.598;2022-07-22T05:26:31;75.15;;;32.22;;
68349;SDS011;55268;-34.538;-58.598;2022-07-22T05:28:58;72.47;;;36.30;;
68349;SDS011;55268;-34.538;-58.598;2022-07-22T05:31:25;68.63;;;30.13;;
68349;SDS011;55268;-34.538;-58.598;2022-07-22T05:33:52;61.95;;;26.35;;
68349;SDS011;55268;-34.538;-58.598;2022-07-22T05:36:19;69.35;;;29.08;;
68349;SDS011;55268;-34.538;-58.598;2022-07-22T05:38:46;52.60;;;23.10;;
68349;SDS011;55268;-34.538;-58.598;2022-07-22T05:41:13;35.70;;;15.20;;
68349;SDS011;55268;-34.538;-58.598;2022-07-22T05:43:40;43.88;;;17.73;;
68349;SDS011;55268;-34.538;-58.598;2022-07-22T05:46:07;219.00;;;81.63;;
68349;SDS011;55268;-34.538;-58.598;2022-07-22T05:48:34;184.40;;;83.43;;
68349;SDS011;55268;-34.538;-58.598;2022-07-22T05:51:01;102.18;;;43.55;;
68349;SDS011;55268;-34.538;-58.598;2022-07-22T05:53:28;287.02;;;120.93;;
68349;SDS011;55268;-34.538;-58.598;2022-07-22T05:55:55;390.35;;;152.95;;
68349;SDS011;55268;-34.538;-58.598;2022-07-22T05:58:22;354.67;;;143.95;;
68349;SDS011;55268;-34.538;-58.598;2022-07-22T06:00:49;248.93;;;109.18;;
68349;SDS011;55268;-34.538;-58.598;2022-07-22T06:03:15;210.45;;;97.47;;
68349;SDS011;55268;-34.538;-58.598;2022-07-22T06:05:42;279.42;;;113.78;;
68349;SDS011;55268;-34.538;-58.598;2022-07-22T06:08:09;383.85;;;159.98;;
68349;SDS011;55268;-34.538;-58.598;2022-07-22T06:10:36;198.98;;;102.78;;
68349;SDS011;55268;-34.538;-58.598;2022-07-22T06:13:03;94.07;;;46.45;;
68349;SDS011;55268;-34.538;-58.598;2022-07-22T06:15:30;56.10;;;27.40;;
68349;SDS011;55268;-34.538;-58.598;2022-07-22T06:17:57;65.88;;;31.05;;
68349;SDS011;55268;-34.538;-58.598;2022-07-22T06:20:24;78.80;;;33.17;;
68349;SDS011;55268;-34.538;-58.598;2022-07-22T06:25:18;63.75;;;26.10;;
68349;SDS011;55268;-34.538;-58.598;2022-07-22T06:27:44;69.75;;;29.35;;
68349;SDS011;55268;-34.538;-58.598;2022-07-22T06:30:11;44.95;;;18.75;;
68349;SDS011;55268;-34.538;-58.598;2022-07-22T06:32:38;39.65;;;16.75;;
68349;SDS011;55268;-34.538;-58.598;2022-07-22T06:35:12;44.92;;;17.63;;
68349;SDS011;55268;-34.538;-58.598;2022-07-22T06:40:13;36.92;;;14.52;;
68349;SDS011;55268;-34.538;-58.598;2022-07-22T06:42:40;57.58;;;23.65;;
68349;SDS011;55268;-34.538;-58.598;2022-07-22T06:45:07;33.72;;;14.18;;
68349;SDS011;55268;-34.538;-58.598;2022-07-22T06:47:34;46.65;;;20.85;;
68349;SDS011;55268;-34.538;-58.598;2022-07-22T06:50:05;42.22;;;15.18;;
68349;SDS011;55268;-34.538;-58.598;2022-07-22T06:52:33;40.58;;;13.80;;
68349;SDS011;55268;-34.538;-58.598;2022-07-22T06:55:00;26.30;;;12.15;;
68349;SDS011;55268;-34.538;-58.598;2022-07-22T06:57:27;28.40;;;12.73;;
68349;SDS011;55268;-34.538;-58.598;2022-07-22T06:59:53;32.85;;;13.10;;
68349;SDS011;55268;-34.538;-58.598;2022-07-22T07:02:20;33.13;;;14.27;;
68349;SDS011;55268;-34.538;-58.598;2022-07-22T07:04:47;40.60;;;16.27;;
68349;SDS011;55268;-34.538;-58.598;2022-07-22T07:07:14;46.45;;;22.23;;
68349;SDS011;55268;-34.538;-58.598;2022-07-22T07:09:41;110.30;;;55.13;;
68349;SDS011;55268;-34.538;-58.598;2022-07-22T07:12:08;83.90;;;43.85;;
68349;SDS011;55268;-34.538;-58.598;2022-07-22T07:14:35;61.78;;;33.20;;
68349;SDS011;55268;-34.538;-58.598;2022-07-22T07:17:01;60.92;;;32.17;;
68349;SDS011;55268;-34.538;-58.598;2022-07-22T07:19:28;69.25;;;34.95;;
68349;SDS011;55268;-34.538;-58.598;2022-07-22T07:21:55;76.65;;;36.95;;
68349;SDS011;55268;-34.538;-58.598;2022-07-22T07:24:22;60.30;;;33.50;;
68349;SDS011;55268;-34.538;-58.598;2022-07-22T07:26:49;57.28;;;30.67;;
68349;SDS011;55268;-34.538;-58.598;2022-07-22T07:29:16;51.78;;;29.65;;
68349;SDS011;55268;-34.538;-58.598;2022-07-22T07:31:43;58.35;;;30.35;;
68349;SDS011;55268;-34.538;-58.598;2022-07-22T07:34:09;61.38;;;29.52;;
68349;SDS011;55268;-34.538;-58.598;2022-07-22T07:36:36;81.40;;;37.10;;
68349;SDS011;55268;-34.538;-58.598;2022-07-22T07:39:03;66.00;;;32.40;;
68349;SDS011;55268;-34.538;-58.598;2022-07-22T07:41:30;75.38;;;33.80;;
68349;SDS011;55268;-34.538;-58.598;2022-07-22T07:43:57;47.60;;;24.02;;
68349;SDS011;55268;-34.538;-58.598;2022-07-22T07:46:24;65.28;;;26.15;;
68349;SDS011;55268;-34.538;-58.598;2022-07-22T07:48:51;70.53;;;27.80;;
68349;SDS011;55268;-34.538;-58.598;2022-07-22T07:51:18;70.15;;;30.23;;
68349;SDS011;55268;-34.538;-58.598;2022-07-22T07:53:45;53.63;;;21.65;;
68349;SDS011;55268;-34.538;-58.598;2022-07-22T07:56:12;61.10;;;21.95;;
68349;SDS011;55268;-34.538;-58.598;2022-07-22T07:58:39;87.53;;;34.50;;
68349;SDS011;55268;-34.538;-58.598;2022-07-22T08:01:06;65.20;;;26.10;;
68349;SDS011;55268;-34.538;-58.598;2022-07-22T08:03:33;61.15;;;21.40;;
68349;SDS011;55268;-34.538;-58.598;2022-07-22T08:06:00;58.72;;;23.58;;
68349;SDS011;55268;-34.538;-58.598;2022-07-22T08:08:27;78.55;;;31.13;;
68349;SDS011;55268;-34.538;-58.598;2022-07-22T08:10:54;58.45;;;25.15;;
68349;SDS011;55268;-34.538;-58.598;2022-07-22T08:13:21;57.53;;;23.50;;
68349;SDS011;55268;-34.538;-58.598;2022-07-22T08:15:48;44.67;;;19.88;;
68349;SDS011;55268;-34.538;-58.598;2022-07-22T08:18:15;41.25;;;19.52;;
68349;SDS011;55268;-34.538;-58.598;2022-07-22T08:20:42;44.75;;;19.95;;
68349;SDS011;55268;-34.538;-58.598;2022-07-22T08:23:09;44.03;;;19.02;;
68349;SDS011;55268;-34.538;-58.598;2022-07-22T08:25:36;53.90;;;22.25;;
68349;SDS011;55268;-34.538;-58.598;2022-07-22T08:28:03;54.45;;;20.25;;
68349;SDS011;55268;-34.538;-58.598;2022-07-22T08:30:30;51.72;;;21.50;;
68349;SDS011;55268;-34.538;-58.598;2022-07-22T08:32:57;42.72;;;19.45;;
68349;SDS011;55268;-34.538;-58.598;2022-07-22T08:35:24;47.78;;;22.98;;
68349;SDS011;55268;-34.538;-58.598;2022-07-22T08:37:51;47.67;;;21.38;;
68349;SDS011;55268;-34.538;-58.598;2022-07-22T08:40:18;40.22;;;19.10;;
68349;SDS011;55268;-34.538;-58.598;2022-07-22T08:42:46;65.72;;;33.05;;
68349;SDS011;55268;-34.538;-58.598;2022-07-22T08:45:14;89.10;;;50.33;;
68349;SDS011;55268;-34.538;-58.598;2022-07-22T08:47:44;99.70;;;63.00;;
68349;SDS011;55268;-34.538;-58.598;2022-07-22T08:50:12;88.75;;;38.72;;
68349;SDS011;55268;-34.538;-58.598;2022-07-22T08:52:39;61.97;;;28.48;;
68349;SDS011;55268;-34.538;-58.598;2022-07-22T08:55:07;61.50;;;25.02;;
68349;SDS011;55268;-34.538;-58.598;2022-07-22T08:57:34;46.38;;;21.80;;
68349;SDS011;55268;-34.538;-58.598;2022-07-22T09:00:08;39.83;;;21.08;;
68349;SDS011;55268;-34.538;-58.598;2022-07-22T09:02:37;61.38;;;26.75;;
68349;SDS011;55268;-34.538;-58.598;2022-07-22T09:05:06;42.50;;;20.80;;
68349;SDS011;55268;-34.538;-58.598;2022-07-22T09:07:37;39.72;;;19.00;;
68349;SDS011;55268;-34.538;-58.598;2022-07-22T09:10:10;41.00;;;19.27;;
68349;SDS011;55268;-34.538;-58.598;2022-07-22T09:12:56;62.92;;;24.50;;
68349;SDS011;55268;-34.538;-58.598;2022-07-22T09:15:27;85.95;;;34.00;;
68349;SDS011;55268;-34.538;-58.598;2022-07-22T09:17:57;113.68;;;44.67;;
68349;SDS011;55268;-34.538;-58.598;2022-07-22T09:20:25;101.72;;;40.55;;
68349;SDS011;55268;-34.538;-58.598;2022-07-22T09:22:53;56.10;;;25.05;;
68349;SDS011;55268;-34.538;-58.598;2022-07-22T09:27:56;80.10;;;30.40;;
68349;SDS011;55268;-34.538;-58.598;2022-07-22T09:30:36;55.47;;;22.20;;
68349;SDS011;55268;-34.538;-58.598;2022-07-22T09:33:06;48.63;;;20.00;;
68349;SDS011;55268;-34.538;-58.598;2022-07-22T09:35:34;64.40;;;23.60;;
68349;SDS011;55268;-34.538;-58.598;2022-07-22T09:38:03;49.85;;;21.48;;
68349;SDS011;55268;-34.538;-58.598;2022-07-22T09:40:32;46.20;;;19.60;;
68349;SDS011;55268;-34.538;-58.598;2022-07-22T09:43:04;43.88;;;20.23;;
68349;SDS011;55268;-34.538;-58.598;2022-07-22T09:45:43;52.33;;;22.42;;
68349;SDS011;55268;-34.538;-58.598;2022-07-22T09:48:13;56.53;;;22.95;;
68349;SDS011;55268;-34.538;-58.598;2022-07-22T09:50:40;49.90;;;20.30;;
68349;SDS011;55268;-34.538;-58.598;2022-07-22T09:53:07;52.90;;;22.92;;
68349;SDS011;55268;-34.538;-58.598;2022-07-22T09:55:34;81.30;;;32.28;;
68349;SDS011;55268;-34.538;-58.598;2022-07-22T09:58:04;62.45;;;22.35;;
68349;SDS011;55268;-34.538;-58.598;2022-07-22T10:00:33;46.42;;;19.17;;
68349;SDS011;55268;-34.538;-58.598;2022-07-22T10:03:02;51.38;;;20.92;;
68349;SDS011;55268;-34.538;-58.598;2022-07-22T10:05:32;45.13;;;18.58;;
68349;SDS011;55268;-34.538;-58.598;2022-07-22T10:08:02;47.38;;;20.27;;
68349;SDS011;55268;-34.538;-58.598;2022-07-22T10:10:31;53.83;;;20.05;;
68349;SDS011;55268;-34.538;-58.598;2022-07-22T10:13:00;48.42;;;19.85;;
68349;SDS011;55268;-34.538;-58.598;2022-07-22T10:15:29;45.08;;;19.55;;
68349;SDS011;55268;-34.538;-58.598;2022-07-22T10:17:58;68.57;;;24.80;;
68349;SDS011;55268;-34.538;-58.598;2022-07-22T10:20:27;50.25;;;21.40;;
68349;SDS011;55268;-34.538;-58.598;2022-07-22T10:22:57;53.00;;;17.55;;
68349;SDS011;55268;-34.538;-58.598;2022-07-22T10:25:27;52.60;;;18.98;;
68349;SDS011;55268;-34.538;-58.598;2022-07-22T10:28:04;46.42;;;20.80;;
68349;SDS011;55268;-34.538;-58.598;2022-07-22T10:30:32;42.35;;;19.58;;
68349;SDS011;55268;-34.538;-58.598;2022-07-22T10:33:04;46.92;;;18.30;;
68349;SDS011;55268;-34.538;-58.598;2022-07-22T10:35:33;39.63;;;18.65;;
68349;SDS011;55268;-34.538;-58.598;2022-07-22T10:38:04;48.75;;;18.67;;
68349;SDS011;55268;-34.538;-58.598;2022-07-22T10:43:22;37.05;;;18.48;;
68349;SDS011;55268;-34.538;-58.598;2022-07-22T10:45:52;52.95;;;22.13;;
68349;SDS011;55268;-34.538;-58.598;2022-07-22T10:48:22;54.00;;;22.77;;
68349;SDS011;55268;-34.538;-58.598;2022-07-22T10:53:49;109.90;;;52.88;;
68349;SDS011;55268;-34.538;-58.598;2022-07-22T11:01:21;45.28;;;18.52;;
68349;SDS011;55268;-34.538;-58.598;2022-07-22T11:03:51;48.15;;;18.60;;
68349;SDS011;55268;-34.538;-58.598;2022-07-22T11:08:57;38.35;;;17.98;;
68349;SDS011;55268;-34.538;-58.598;2022-07-22T11:14:12;44.92;;;17.67;;
68349;SDS011;55268;-34.538;-58.598;2022-07-22T11:16:43;47.92;;;18.27;;
68349;SDS011;55268;-34.538;-58.598;2022-07-22T11:19:11;44.35;;;19.08;;
68349;SDS011;55268;-34.538;-58.598;2022-07-22T11:21:38;37.95;;;17.40;;
68349;SDS011;55268;-34.538;-58.598;2022-07-22T11:24:06;45.17;;;17.33;;
68349;SDS011;55268;-34.538;-58.598;2022-07-22T11:26:41;47.95;;;18.65;;
68349;SDS011;55268;-34.538;-58.598;2022-07-22T11:29:10;51.22;;;22.95;;
68349;SDS011;55268;-34.538;-58.598;2022-07-22T11:31:59;71.53;;;34.38;;
68349;SDS011;55268;-34.538;-58.598;2022-07-22T11:34:27;76.13;;;37.65;;
68349;SDS011;55268;-34.538;-58.598;2022-07-22T11:36:55;70.20;;;37.97;;
68349;SDS011;55268;-34.538;-58.598;2022-07-22T11:39:24;63.75;;;34.78;;
68349;SDS011;55268;-34.538;-58.598;2022-07-22T11:41:55;327.17;;;140.68;;
68349;SDS011;55268;-34.538;-58.598;2022-07-22T11:44:25;359.70;;;156.18;;
68349;SDS011;55268;-34.538;-58.598;2022-07-22T11:46:54;173.77;;;91.22;;
68349;SDS011;55268;-34.538;-58.598;2022-07-22T11:49:24;99.25;;;53.17;;
68349;SDS011;55268;-34.538;-58.598;2022-07-22T11:51:52;74.20;;;30.88;;
68349;SDS011;55268;-34.538;-58.598;2022-07-22T11:54:19;57.42;;;28.83;;
68349;SDS011;55268;-34.538;-58.598;2022-07-22T11:56:46;56.10;;;27.02;;
68349;SDS011;55268;-34.538;-58.598;2022-07-22T11:59:15;72.50;;;37.45;;
68349;SDS011;55268;-34.538;-58.598;2022-07-22T12:01:43;64.93;;;32.13;;
68349;SDS011;55268;-34.538;-58.598;2022-07-22T12:04:13;54.83;;;25.85;;
68349;SDS011;55268;-34.538;-58.598;2022-07-22T12:06:45;49.85;;;22.20;;
68349;SDS011;55268;-34.538;-58.598;2022-07-22T12:09:13;49.55;;;22.15;;
68349;SDS011;55268;-34.538;-58.598;2022-07-22T12:11:47;43.97;;;19.38;;
68349;SDS011;55268;-34.538;-58.598;2022-07-22T12:14:17;40.20;;;18.77;;
68349;SDS011;55268;-34.538;-58.598;2022-07-22T12:16:56;40.92;;;18.60;;
68349;SDS011;55268;-34.538;-58.598;2022-07-22T12:19:23;40.65;;;21.48;;
68349;SDS011;55268;-34.538;-58.598;2022-07-22T12:21:57;43.10;;;22.50;;
68349;SDS011;55268;-34.538;-58.598;2022-07-22T12:24:26;56.30;;;24.38;;
68349;SDS011;55268;-34.538;-58.598;2022-07-22T12:26:55;46.33;;;22.90;;
68349;SDS011;55268;-34.538;-58.598;2022-07-22T12:29:25;47.42;;;20.67;;
68349;SDS011;55268;-34.538;-58.598;2022-07-22T12:31:56;46.40;;;20.67;;
68349;SDS011;55268;-34.538;-58.598;2022-07-22T12:34:35;39.97;;;19.83;;
68349;SDS011;55268;-34.538;-58.598;2022-07-22T12:42:44;40.67;;;22.38;;
68349;SDS011;55268;-34.538;-58.598;2022-07-22T12:45:13;45.05;;;23.75;;
68349;SDS011;55268;-34.538;-58.598;2022-07-22T12:47:43;38.92;;;20.52;;
68349;SDS011;55268;-34.538;-58.598;2022-07-22T12:52:52;45.75;;;22.88;;
68349;SDS011;55268;-34.538;-58.598;2022-07-22T12:55:21;54.47;;;29.25;;
68349;SDS011;55268;-34.538;-58.598;2022-07-22T12:57:48;55.78;;;30.95;;
68349;SDS011;55268;-34.538;-58.598;2022-07-22T13:00:17;61.33;;;31.52;;
68349;SDS011;55268;-34.538;-58.598;2022-07-22T13:02:46;44.00;;;24.35;;
68349;SDS011;55268;-34.538;-58.598;2022-07-22T13:05:13;56.28;;;24.88;;
68349;SDS011;55268;-34.538;-58.598;2022-07-22T13:07:40;40.90;;;20.63;;
68349;SDS011;55268;-34.538;-58.598;2022-07-22T13:10:08;52.08;;;26.63;;
68349;SDS011;55268;-34.538;-58.598;2022-07-22T13:12:36;48.78;;;23.55;;
68349;SDS011;55268;-34.538;-58.598;2022-07-22T13:15:03;49.70;;;23.13;;
68349;SDS011;55268;-34.538;-58.598;2022-07-22T13:17:31;46.97;;;24.48;;
68349;SDS011;55268;-34.538;-58.598;2022-07-22T13:19:58;47.60;;;24.67;;
68349;SDS011;55268;-34.538;-58.598;2022-07-22T13:22:25;52.22;;;25.67;;
68349;SDS011;55268;-34.538;-58.598;2022-07-22T13:24:52;48.80;;;23.73;;
68349;SDS011;55268;-34.538;-58.598;2022-07-22T13:27:19;57.35;;;25.00;;
68349;SDS011;55268;-34.538;-58.598;2022-07-22T13:29:46;49.67;;;25.10;;
68349;SDS011;55268;-34.538;-58.598;2022-07-22T13:32:13;51.78;;;24.50;;
68349;SDS011;55268;-34.538;-58.598;2022-07-22T13:34:40;53.83;;;25.98;;
68349;SDS011;55268;-34.538;-58.598;2022-07-22T13:37:06;59.50;;;26.38;;
68349;SDS011;55268;-34.538;-58.598;2022-07-22T13:39:33;50.45;;;24.63;;
68349;SDS011;55268;-34.538;-58.598;2022-07-22T13:42:00;47.72;;;22.80;;
68349;SDS011;55268;-34.538;-58.598;2022-07-22T13:44:27;37.67;;;20.80;;
68349;SDS011;55268;-34.538;-58.598;2022-07-22T13:46:56;46.10;;;20.20;;
68349;SDS011;55268;-34.538;-58.598;2022-07-22T13:49:24;41.40;;;22.27;;
68349;SDS011;55268;-34.538;-58.598;2022-07-22T13:51:52;45.25;;;20.10;;
68349;SDS011;55268;-34.538;-58.598;2022-07-22T13:54:19;43.17;;;18.45;;
68349;SDS011;55268;-34.538;-58.598;2022-07-22T13:56:46;42.28;;;20.05;;
68349;SDS011;55268;-34.538;-58.598;2022-07-22T13:59:14;43.85;;;19.83;;
68349;SDS011;55268;-34.538;-58.598;2022-07-22T14:01:42;43.35;;;21.50;;
68349;SDS011;55268;-34.538;-58.598;2022-07-22T14:04:09;42.80;;;19.55;;
68349;SDS011;55268;-34.538;-58.598;2022-07-22T14:06:36;42.22;;;17.70;;
68349;SDS011;55268;-34.538;-58.598;2022-07-22T14:09:03;44.50;;;19.75;;
68349;SDS011;55268;-34.538;-58.598;2022-07-22T14:11:30;35.65;;;16.70;;
68349;SDS011;55268;-34.538;-58.598;2022-07-22T14:13:57;30.40;;;15.25;;
68349;SDS011;55268;-34.538;-58.598;2022-07-22T14:16:24;38.22;;;16.25;;
68349;SDS011;55268;-34.538;-58.598;2022-07-22T14:19:07;32.83;;;15.15;;
68349;SDS011;55268;-34.538;-58.598;2022-07-22T14:21:36;32.53;;;14.98;;
68349;SDS011;55268;-34.538;-58.598;2022-07-22T14:24:05;42.28;;;15.95;;
68349;SDS011;55268;-34.538;-58.598;2022-07-22T14:26:33;40.10;;;15.27;;